sensor_id;sensor_type;location;lat;lon;timestamp;P1;durP1;ratioP1;P2;durP2;ratioP2
45033;SDS011;30771;47.988;-4.186;2024-02-26T00:00:37;19.23;;;2.72;;
45033;SDS011;30771;47.988;-4.186;2024-02-26T00:03:04;13.18;;;2.50;;
45033;SDS011;30771;47.988;-4.186;2024-02-26T00:05:31;14.27;;;2.53;;
45033;SDS011;30771;47.988;-4.186;2024-02-26T00:07:58;13.32;;;2.55;;
45033;SDS011;30771;47.988;-4.186;2024-02-26T00:10:28;21.13;;;2.50;;
45033;SDS011;30771;47.988;-4.186;2024-02-26T00:12:55;14.52;;;2.65;;
45033;SDS011;30771;47.988;-4.186;2024-02-26T00:15:22;17.05;;;2.22;;
45033;SDS011;30771;47.988;-4.186;2024-02-26T00:17:48;14.13;;;2.15;;
45033;SDS011;30771;47.988;-4.186;2024-02-26T00:20:15;11.95;;;1.80;;
45033;SDS011;30771;47.988;-4.186;2024-02-26T00:22:42;14.40;;;2.10;;
45033;SDS011;30771;47.988;-4.186;2024-02-26T00:25:09;15.50;;;2.45;;
45033;SDS011;30771;47.988;-4.186;2024-02-26T00:27:35;12.40;;;1.92;;
45033;SDS011;30771;47.988;-4.186;2024-02-26T00:30:02;15.57;;;2.00;;
45033;SDS011;30771;47.988;-4.186;2024-02-26T00:32:29;18.75;;;2.50;;
45033;SDS011;30771;47.988;-4.186;2024-02-26T00:34:56;17.98;;;2.30;;
45033;SDS011;30771;47.988;-4.186;2024-02-26T00:37:23;25.83;;;3.25;;
45033;SDS011;30771;47.988;-4.186;2024-02-26T00:39:50;18.63;;;2.65;;
45033;SDS011;30771;47.988;-4.186;2024-02-26T00:42:16;18.98;;;2.63;;
45033;SDS011;30771;47.988;-4.186;2024-02-26T00:44:43;23.55;;;3.15;;
45033;SDS011;30771;47.988;-4.186;2024-02-26T00:47:10;19.30;;;2.88;;
45033;SDS011;30771;47.988;-4.186;2024-02-26T00:49:37;19.08;;;3.10;;
45033;SDS011;30771;47.988;-4.186;2024-02-26T00:52:04;22.80;;;2.42;;
45033;SDS011;30771;47.988;-4.186;2024-02-26T00:54:31;16.92;;;3.03;;
45033;SDS011;30771;47.988;-4.186;2024-02-26T00:56:57;29.20;;;2.80;;
45033;SDS011;30771;47.988;-4.186;2024-02-26T00:59:24;21.40;;;3.00;;
45033;SDS011;30771;47.988;-4.186;2024-02-26T01:01:51;14.77;;;2.45;;
45033;SDS011;30771;47.988;-4.186;2024-02-26T01:04:17;21.02;;;3.45;;
45033;SDS011;30771;47.988;-4.186;2024-02-26T01:06:44;23.45;;;3.45;;
45033;SDS011;30771;47.988;-4.186;2024-02-26T01:09:11;24.20;;;4.25;;
45033;SDS011;30771;47.988;-4.186;2024-02-26T01:11:38;26.92;;;3.58;;
45033;SDS011;30771;47.988;-4.186;2024-02-26T01:14:04;19.52;;;3.90;;
45033;SDS011;30771;47.988;-4.186;2024-02-26T01:16:32;20.45;;;4.35;;
45033;SDS011;30771;47.988;-4.186;2024-02-26T01:18:59;29.63;;;5.18;;
45033;SDS011;30771;47.988;-4.186;2024-02-26T01:21:26;19.77;;;4.35;;
45033;SDS011;30771;47.988;-4.186;2024-02-26T01:23:55;16.58;;;4.85;;
45033;SDS011;30771;47.988;-4.186;2024-02-26T01:26:22;23.52;;;4.57;;
45033;SDS011;30771;47.988;-4.186;2024-02-26T01:28:48;29.83;;;4.50;;
45033;SDS011;30771;47.988;-4.186;2024-02-26T01:31:15;27.02;;;4.13;;
45033;SDS011;30771;47.988;-4.186;2024-02-26T01:33:42;24.92;;;3.90;;
45033;SDS011;30771;47.988;-4.186;2024-02-26T01:36:09;16.52;;;3.05;;
45033;SDS011;30771;47.988;-4.186;2024-02-26T01:38:36;15.82;;;2.75;;
45033;SDS011;30771;47.988;-4.186;2024-02-26T01:41:02;9.02;;;2.40;;
45033;SDS011;30771;47.988;-4.186;2024-02-26T01:43:29;12.18;;;1.73;;
45033;SDS011;30771;47.988;-4.186;2024-02-26T01:45:56;10.15;;;1.90;;
45033;SDS011;30771;47.988;-4.186;2024-02-26T01:48:22;6.57;;;1.90;;
45033;SDS011;30771;47.988;-4.186;2024-02-26T01:50:50;6.10;;;1.45;;
45033;SDS011;30771;47.988;-4.186;2024-02-26T01:53:16;4.75;;;1.02;;
45033;SDS011;30771;47.988;-4.186;2024-02-26T01:55:45;3.60;;;0.82;;
45033;SDS011;30771;47.988;-4.186;2024-02-26T01:58:11;3.35;;;0.60;;
45033;SDS011;30771;47.988;-4.186;2024-02-26T02:00:39;3.67;;;0.57;;
45033;SDS011;30771;47.988;-4.186;2024-02-26T02:03:06;2.70;;;0.52;;
45033;SDS011;30771;47.988;-4.186;2024-02-26T02:05:33;3.97;;;0.70;;
45033;SDS011;30771;47.988;-4.186;2024-02-26T02:08:01;5.38;;;0.73;;
45033;SDS011;30771;47.988;-4.186;2024-02-26T02:10:30;4.55;;;0.57;;
45033;SDS011;30771;47.988;-4.186;2024-02-26T02:12:57;2.10;;;0.70;;
45033;SDS011;30771;47.988;-4.186;2024-02-26T02:15:23;5.85;;;0.65;;
45033;SDS011;30771;47.988;-4.186;2024-02-26T02:17:50;8.15;;;0.80;;
45033;SDS011;30771;47.988;-4.186;2024-02-26T02:20:17;2.50;;;0.50;;
45033;SDS011;30771;47.988;-4.186;2024-02-26T02:22:45;4.85;;;0.90;;
45033;SDS011;30771;47.988;-4.186;2024-02-26T02:25:12;6.03;;;0.80;;
45033;SDS011;30771;47.988;-4.186;2024-02-26T02:27:40;9.40;;;0.82;;
45033;SDS011;30771;47.988;-4.186;2024-02-26T02:30:08;7.57;;;0.80;;
45033;SDS011;30771;47.988;-4.186;2024-02-26T02:32:36;6.65;;;1.10;;
45033;SDS011;30771;47.988;-4.186;2024-02-26T02:35:06;6.30;;;0.90;;
45033;SDS011;30771;47.988;-4.186;2024-02-26T02:37:33;5.72;;;0.88;;
45033;SDS011;30771;47.988;-4.186;2024-02-26T02:40:00;9.05;;;1.10;;
45033;SDS011;30771;47.988;-4.186;2024-02-26T02:42:27;6.53;;;0.70;;
45033;SDS011;30771;47.988;-4.186;2024-02-26T02:44:54;7.07;;;1.63;;
45033;SDS011;30771;47.988;-4.186;2024-02-26T02:47:20;7.40;;;1.08;;
45033;SDS011;30771;47.988;-4.186;2024-02-26T02:49:47;5.63;;;0.65;;
45033;SDS011;30771;47.988;-4.186;2024-02-26T02:52:14;5.43;;;1.00;;
45033;SDS011;30771;47.988;-4.186;2024-02-26T02:54:41;8.52;;;1.20;;
45033;SDS011;30771;47.988;-4.186;2024-02-26T02:57:09;6.13;;;1.00;;
45033;SDS011;30771;47.988;-4.186;2024-02-26T02:59:36;3.42;;;0.45;;
45033;SDS011;30771;47.988;-4.186;2024-02-26T03:02:03;4.22;;;0.60;;
45033;SDS011;30771;47.988;-4.186;2024-02-26T03:04:31;5.78;;;1.20;;
45033;SDS011;30771;47.988;-4.186;2024-02-26T03:06:58;8.85;;;0.85;;
45033;SDS011;30771;47.988;-4.186;2024-02-26T03:09:25;5.32;;;0.80;;
45033;SDS011;30771;47.988;-4.186;2024-02-26T03:11:52;4.90;;;0.80;;
45033;SDS011;30771;47.988;-4.186;2024-02-26T03:14:18;8.32;;;1.02;;
45033;SDS011;30771;47.988;-4.186;2024-02-26T03:16:45;5.35;;;1.08;;
45033;SDS011;30771;47.988;-4.186;2024-02-26T03:19:15;7.35;;;1.00;;
45033;SDS011;30771;47.988;-4.186;2024-02-26T03:21:43;6.47;;;0.90;;
45033;SDS011;30771;47.988;-4.186;2024-02-26T03:24:09;9.98;;;1.65;;
45033;SDS011;30771;47.988;-4.186;2024-02-26T03:26:37;9.40;;;1.33;;
45033;SDS011;30771;47.988;-4.186;2024-02-26T03:29:04;8.68;;;0.98;;
45033;SDS011;30771;47.988;-4.186;2024-02-26T03:31:31;7.97;;;1.25;;
45033;SDS011;30771;47.988;-4.186;2024-02-26T03:33:58;9.85;;;1.20;;
45033;SDS011;30771;47.988;-4.186;2024-02-26T03:36:25;8.82;;;1.45;;
45033;SDS011;30771;47.988;-4.186;2024-02-26T03:38:52;9.13;;;2.45;;
45033;SDS011;30771;47.988;-4.186;2024-02-26T03:41:19;10.65;;;1.85;;
45033;SDS011;30771;47.988;-4.186;2024-02-26T03:43:46;9.80;;;1.77;;
45033;SDS011;30771;47.988;-4.186;2024-02-26T03:46:12;7.45;;;1.02;;
45033;SDS011;30771;47.988;-4.186;2024-02-26T03:48:40;6.03;;;1.05;;
45033;SDS011;30771;47.988;-4.186;2024-02-26T03:51:08;7.57;;;1.00;;
45033;SDS011;30771;47.988;-4.186;2024-02-26T03:53:36;8.23;;;1.10;;
45033;SDS011;30771;47.988;-4.186;2024-02-26T03:56:03;7.43;;;0.90;;
45033;SDS011;30771;47.988;-4.186;2024-02-26T03:58:31;7.30;;;1.15;;
45033;SDS011;30771;47.988;-4.186;2024-02-26T04:00:58;6.45;;;0.85;;
45033;SDS011;30771;47.988;-4.186;2024-02-26T04:03:26;9.20;;;1.52;;
45033;SDS011;30771;47.988;-4.186;2024-02-26T04:05:53;7.03;;;2.03;;
45033;SDS011;30771;47.988;-4.186;2024-02-26T04:08:20;8.13;;;1.27;;
45033;SDS011;30771;47.988;-4.186;2024-02-26T04:10:47;8.52;;;1.35;;
45033;SDS011;30771;47.988;-4.186;2024-02-26T04:13:14;9.13;;;1.60;;
45033;SDS011;30771;47.988;-4.186;2024-02-26T04:15:41;4.93;;;1.10;;
45033;SDS011;30771;47.988;-4.186;2024-02-26T04:18:07;2.90;;;0.98;;
45033;SDS011;30771;47.988;-4.186;2024-02-26T04:20:35;6.47;;;1.08;;
45033;SDS011;30771;47.988;-4.186;2024-02-26T04:23:02;5.53;;;1.17;;
45033;SDS011;30771;47.988;-4.186;2024-02-26T04:25:29;6.32;;;0.82;;
45033;SDS011;30771;47.988;-4.186;2024-02-26T04:27:56;4.82;;;1.42;;
45033;SDS011;30771;47.988;-4.186;2024-02-26T04:30:23;6.57;;;1.10;;
45033;SDS011;30771;47.988;-4.186;2024-02-26T04:32:50;4.88;;;0.90;;
45033;SDS011;30771;47.988;-4.186;2024-02-26T04:35:17;6.55;;;1.65;;
45033;SDS011;30771;47.988;-4.186;2024-02-26T04:37:44;7.38;;;2.25;;
45033;SDS011;30771;47.988;-4.186;2024-02-26T04:40:11;8.55;;;3.35;;
45033;SDS011;30771;47.988;-4.186;2024-02-26T04:42:38;12.00;;;2.83;;
45033;SDS011;30771;47.988;-4.186;2024-02-26T04:45:04;10.95;;;3.47;;
45033;SDS011;30771;47.988;-4.186;2024-02-26T04:47:33;3.60;;;1.17;;
45033;SDS011;30771;47.988;-4.186;2024-02-26T04:50:00;8.30;;;1.38;;
45033;SDS011;30771;47.988;-4.186;2024-02-26T04:52:27;4.97;;;1.08;;
45033;SDS011;30771;47.988;-4.186;2024-02-26T04:54:53;6.80;;;1.70;;
45033;SDS011;30771;47.988;-4.186;2024-02-26T04:57:21;6.00;;;1.10;;
45033;SDS011;30771;47.988;-4.186;2024-02-26T04:59:48;9.07;;;1.35;;
45033;SDS011;30771;47.988;-4.186;2024-02-26T05:02:15;3.40;;;1.30;;
45033;SDS011;30771;47.988;-4.186;2024-02-26T05:04:42;5.65;;;1.75;;
45033;SDS011;30771;47.988;-4.186;2024-02-26T05:07:08;9.35;;;1.33;;
45033;SDS011;30771;47.988;-4.186;2024-02-26T05:09:35;4.10;;;1.10;;
45033;SDS011;30771;47.988;-4.186;2024-02-26T05:12:02;4.13;;;1.10;;
45033;SDS011;30771;47.988;-4.186;2024-02-26T05:14:30;5.75;;;1.30;;
45033;SDS011;30771;47.988;-4.186;2024-02-26T05:16:56;6.30;;;1.60;;
45033;SDS011;30771;47.988;-4.186;2024-02-26T05:19:23;6.70;;;1.70;;
45033;SDS011;30771;47.988;-4.186;2024-02-26T05:21:50;10.10;;;1.90;;
45033;SDS011;30771;47.988;-4.186;2024-02-26T05:24:17;15.05;;;2.00;;
45033;SDS011;30771;47.988;-4.186;2024-02-26T05:26:45;9.00;;;2.00;;
45033;SDS011;30771;47.988;-4.186;2024-02-26T05:29:12;16.80;;;3.20;;
45033;SDS011;30771;47.988;-4.186;2024-02-26T05:31:38;12.10;;;2.22;;
45033;SDS011;30771;47.988;-4.186;2024-02-26T05:34:06;10.48;;;2.50;;
45033;SDS011;30771;47.988;-4.186;2024-02-26T05:36:33;13.07;;;2.65;;
45033;SDS011;30771;47.988;-4.186;2024-02-26T05:39:00;16.05;;;2.60;;
45033;SDS011;30771;47.988;-4.186;2024-02-26T05:41:27;17.70;;;2.80;;
45033;SDS011;30771;47.988;-4.186;2024-02-26T05:43:54;20.08;;;3.40;;
45033;SDS011;30771;47.988;-4.186;2024-02-26T05:46:21;11.10;;;2.72;;
45033;SDS011;30771;47.988;-4.186;2024-02-26T05:48:51;13.05;;;2.35;;
45033;SDS011;30771;47.988;-4.186;2024-02-26T05:51:19;15.73;;;2.83;;
45033;SDS011;30771;47.988;-4.186;2024-02-26T05:53:46;14.85;;;3.20;;
45033;SDS011;30771;47.988;-4.186;2024-02-26T05:56:14;13.70;;;2.67;;
45033;SDS011;30771;47.988;-4.186;2024-02-26T05:58:40;14.77;;;2.28;;
45033;SDS011;30771;47.988;-4.186;2024-02-26T06:01:07;11.43;;;2.28;;
45033;SDS011;30771;47.988;-4.186;2024-02-26T06:03:34;19.95;;;3.08;;
45033;SDS011;30771;47.988;-4.186;2024-02-26T06:06:01;14.50;;;3.05;;
45033;SDS011;30771;47.988;-4.186;2024-02-26T06:08:28;16.92;;;2.95;;
45033;SDS011;30771;47.988;-4.186;2024-02-26T06:10:55;18.58;;;3.10;;
45033;SDS011;30771;47.988;-4.186;2024-02-26T06:13:22;15.98;;;3.25;;
45033;SDS011;30771;47.988;-4.186;2024-02-26T06:15:48;12.82;;;2.58;;
45033;SDS011;30771;47.988;-4.186;2024-02-26T06:18:15;11.80;;;3.15;;
45033;SDS011;30771;47.988;-4.186;2024-02-26T06:20:42;12.00;;;3.42;;
45033;SDS011;30771;47.988;-4.186;2024-02-26T06:23:09;19.65;;;4.10;;
45033;SDS011;30771;47.988;-4.186;2024-02-26T06:25:36;16.02;;;2.53;;
45033;SDS011;30771;47.988;-4.186;2024-02-26T06:28:03;25.00;;;4.32;;
45033;SDS011;30771;47.988;-4.186;2024-02-26T06:30:30;19.25;;;3.47;;
45033;SDS011;30771;47.988;-4.186;2024-02-26T06:32:56;29.73;;;4.10;;
45033;SDS011;30771;47.988;-4.186;2024-02-26T06:35:23;18.42;;;3.33;;
45033;SDS011;30771;47.988;-4.186;2024-02-26T06:37:50;19.08;;;3.97;;
45033;SDS011;30771;47.988;-4.186;2024-02-26T06:40:19;22.10;;;3.20;;
45033;SDS011;30771;47.988;-4.186;2024-02-26T06:42:46;21.95;;;3.83;;
45033;SDS011;30771;47.988;-4.186;2024-02-26T06:45:15;20.38;;;4.03;;
45033;SDS011;30771;47.988;-4.186;2024-02-26T06:47:42;19.67;;;3.70;;
45033;SDS011;30771;47.988;-4.186;2024-02-26T06:50:11;23.35;;;3.70;;
45033;SDS011;30771;47.988;-4.186;2024-02-26T06:52:39;19.88;;;3.80;;
45033;SDS011;30771;47.988;-4.186;2024-02-26T06:55:06;22.35;;;4.05;;
45033;SDS011;30771;47.988;-4.186;2024-02-26T06:57:34;17.10;;;3.67;;
45033;SDS011;30771;47.988;-4.186;2024-02-26T07:00:01;21.63;;;3.45;;
45033;SDS011;30771;47.988;-4.186;2024-02-26T07:02:30;28.67;;;3.22;;
45033;SDS011;30771;47.988;-4.186;2024-02-26T07:04:57;26.90;;;3.88;;
45033;SDS011;30771;47.988;-4.186;2024-02-26T07:07:24;26.85;;;4.35;;
45033;SDS011;30771;47.988;-4.186;2024-02-26T07:09:51;22.73;;;3.75;;
45033;SDS011;30771;47.988;-4.186;2024-02-26T07:12:18;21.02;;;3.53;;
45033;SDS011;30771;47.988;-4.186;2024-02-26T07:14:48;28.63;;;3.67;;
45033;SDS011;30771;47.988;-4.186;2024-02-26T07:17:15;19.65;;;3.55;;
45033;SDS011;30771;47.988;-4.186;2024-02-26T07:19:43;19.85;;;3.30;;
45033;SDS011;30771;47.988;-4.186;2024-02-26T07:22:09;25.80;;;4.53;;
45033;SDS011;30771;47.988;-4.186;2024-02-26T07:24:36;22.33;;;4.07;;
45033;SDS011;30771;47.988;-4.186;2024-02-26T07:27:03;23.10;;;4.50;;
45033;SDS011;30771;47.988;-4.186;2024-02-26T07:29:30;16.80;;;3.67;;
45033;SDS011;30771;47.988;-4.186;2024-02-26T07:31:57;23.33;;;3.95;;
45033;SDS011;30771;47.988;-4.186;2024-02-26T07:34:24;21.60;;;3.85;;
45033;SDS011;30771;47.988;-4.186;2024-02-26T07:36:56;18.13;;;3.08;;
45033;SDS011;30771;47.988;-4.186;2024-02-26T07:39:23;16.33;;;3.47;;
45033;SDS011;30771;47.988;-4.186;2024-02-26T07:41:50;21.88;;;4.00;;
45033;SDS011;30771;47.988;-4.186;2024-02-26T07:44:20;23.55;;;3.80;;
45033;SDS011;30771;47.988;-4.186;2024-02-26T07:46:47;20.52;;;3.22;;
45033;SDS011;30771;47.988;-4.186;2024-02-26T07:49:13;14.43;;;3.53;;
45033;SDS011;30771;47.988;-4.186;2024-02-26T07:51:40;15.55;;;3.15;;
45033;SDS011;30771;47.988;-4.186;2024-02-26T07:54:07;21.35;;;3.03;;
45033;SDS011;30771;47.988;-4.186;2024-02-26T07:56:34;17.17;;;3.60;;
45033;SDS011;30771;47.988;-4.186;2024-02-26T07:59:01;22.13;;;3.42;;
45033;SDS011;30771;47.988;-4.186;2024-02-26T08:01:28;18.35;;;3.83;;
45033;SDS011;30771;47.988;-4.186;2024-02-26T08:03:55;19.27;;;3.28;;
45033;SDS011;30771;47.988;-4.186;2024-02-26T08:06:22;18.60;;;4.38;;
45033;SDS011;30771;47.988;-4.186;2024-02-26T08:08:49;24.33;;;4.22;;
45033;SDS011;30771;47.988;-4.186;2024-02-26T08:11:16;17.88;;;3.92;;
45033;SDS011;30771;47.988;-4.186;2024-02-26T08:13:43;20.27;;;3.65;;
45033;SDS011;30771;47.988;-4.186;2024-02-26T08:16:10;21.80;;;3.75;;
45033;SDS011;30771;47.988;-4.186;2024-02-26T08:18:36;19.83;;;3.17;;
45033;SDS011;30771;47.988;-4.186;2024-02-26T08:21:03;18.48;;;3.88;;
45033;SDS011;30771;47.988;-4.186;2024-02-26T08:23:31;17.50;;;3.95;;
45033;SDS011;30771;47.988;-4.186;2024-02-26T08:25:58;16.65;;;3.47;;
45033;SDS011;30771;47.988;-4.186;2024-02-26T08:28:24;16.83;;;3.17;;
45033;SDS011;30771;47.988;-4.186;2024-02-26T08:30:51;15.48;;;3.40;;
45033;SDS011;30771;47.988;-4.186;2024-02-26T08:33:18;18.10;;;4.13;;
45033;SDS011;30771;47.988;-4.186;2024-02-26T08:35:45;18.67;;;4.47;;
45033;SDS011;30771;47.988;-4.186;2024-02-26T08:38:12;16.50;;;2.90;;
45033;SDS011;30771;47.988;-4.186;2024-02-26T08:40:38;13.90;;;3.22;;
45033;SDS011;30771;47.988;-4.186;2024-02-26T08:43:05;13.18;;;3.15;;
45033;SDS011;30771;47.988;-4.186;2024-02-26T08:45:32;15.48;;;3.10;;
45033;SDS011;30771;47.988;-4.186;2024-02-26T08:47:58;13.48;;;3.53;;
45033;SDS011;30771;47.988;-4.186;2024-02-26T08:50:26;14.82;;;2.97;;
45033;SDS011;30771;47.988;-4.186;2024-02-26T08:52:53;20.20;;;3.20;;
45033;SDS011;30771;47.988;-4.186;2024-02-26T08:55:20;15.70;;;3.03;;
45033;SDS011;30771;47.988;-4.186;2024-02-26T08:57:47;16.70;;;3.30;;
45033;SDS011;30771;47.988;-4.186;2024-02-26T09:00:14;17.15;;;2.92;;
45033;SDS011;30771;47.988;-4.186;2024-02-26T09:02:47;14.77;;;2.78;;
45033;SDS011;30771;47.988;-4.186;2024-02-26T09:05:15;18.38;;;3.20;;
45033;SDS011;30771;47.988;-4.186;2024-02-26T09:07:42;21.92;;;2.90;;
45033;SDS011;30771;47.988;-4.186;2024-02-26T09:10:09;16.27;;;3.42;;
45033;SDS011;30771;47.988;-4.186;2024-02-26T09:12:37;15.80;;;3.10;;
45033;SDS011;30771;47.988;-4.186;2024-02-26T09:15:05;22.70;;;4.00;;
45033;SDS011;30771;47.988;-4.186;2024-02-26T09:17:33;14.60;;;3.13;;
45033;SDS011;30771;47.988;-4.186;2024-02-26T09:19:59;23.38;;;3.75;;
45033;SDS011;30771;47.988;-4.186;2024-02-26T09:22:26;16.02;;;3.70;;
45033;SDS011;30771;47.988;-4.186;2024-02-26T09:24:53;14.50;;;3.53;;
45033;SDS011;30771;47.988;-4.186;2024-02-26T09:27:20;24.67;;;3.15;;
45033;SDS011;30771;47.988;-4.186;2024-02-26T09:29:47;17.77;;;3.13;;
45033;SDS011;30771;47.988;-4.186;2024-02-26T09:32:13;25.92;;;4.35;;
45033;SDS011;30771;47.988;-4.186;2024-02-26T09:34:40;26.42;;;4.20;;
45033;SDS011;30771;47.988;-4.186;2024-02-26T09:37:08;20.93;;;3.27;;
45033;SDS011;30771;47.988;-4.186;2024-02-26T09:39:46;23.42;;;3.75;;
45033;SDS011;30771;47.988;-4.186;2024-02-26T09:42:13;27.55;;;4.07;;
45033;SDS011;30771;47.988;-4.186;2024-02-26T09:44:41;28.05;;;3.67;;
45033;SDS011;30771;47.988;-4.186;2024-02-26T09:47:10;19.48;;;3.97;;
45033;SDS011;30771;47.988;-4.186;2024-02-26T09:49:39;24.58;;;4.20;;
45033;SDS011;30771;47.988;-4.186;2024-02-26T09:52:06;22.60;;;3.60;;
45033;SDS011;30771;47.988;-4.186;2024-02-26T09:54:36;21.38;;;3.55;;
45033;SDS011;30771;47.988;-4.186;2024-02-26T09:57:03;31.70;;;4.05;;
45033;SDS011;30771;47.988;-4.186;2024-02-26T09:59:34;18.33;;;3.25;;
45033;SDS011;30771;47.988;-4.186;2024-02-26T10:02:11;29.60;;;3.45;;
45033;SDS011;30771;47.988;-4.186;2024-02-26T10:04:40;20.45;;;3.22;;
45033;SDS011;30771;47.988;-4.186;2024-02-26T10:07:10;15.00;;;3.20;;
45033;SDS011;30771;47.988;-4.186;2024-02-26T10:09:38;18.08;;;3.78;;
45033;SDS011;30771;47.988;-4.186;2024-02-26T10:12:06;15.05;;;3.47;;
45033;SDS011;30771;47.988;-4.186;2024-02-26T10:14:36;19.27;;;3.33;;
45033;SDS011;30771;47.988;-4.186;2024-02-26T10:17:04;22.92;;;3.90;;
45033;SDS011;30771;47.988;-4.186;2024-02-26T10:19:35;18.95;;;3.25;;
45033;SDS011;30771;47.988;-4.186;2024-02-26T10:22:04;27.75;;;5.22;;
45033;SDS011;30771;47.988;-4.186;2024-02-26T10:24:31;20.67;;;4.30;;
45033;SDS011;30771;47.988;-4.186;2024-02-26T10:26:58;25.63;;;3.80;;
45033;SDS011;30771;47.988;-4.186;2024-02-26T10:29:25;27.67;;;5.15;;
45033;SDS011;30771;47.988;-4.186;2024-02-26T10:31:52;19.10;;;3.78;;
45033;SDS011;30771;47.988;-4.186;2024-02-26T10:34:19;20.17;;;3.42;;
45033;SDS011;30771;47.988;-4.186;2024-02-26T10:36:47;28.27;;;3.40;;
45033;SDS011;30771;47.988;-4.186;2024-02-26T10:39:19;15.35;;;3.13;;
45033;SDS011;30771;47.988;-4.186;2024-02-26T10:41:47;22.80;;;3.42;;
45033;SDS011;30771;47.988;-4.186;2024-02-26T10:44:14;19.88;;;4.03;;
45033;SDS011;30771;47.988;-4.186;2024-02-26T10:46:44;17.58;;;3.17;;
45033;SDS011;30771;47.988;-4.186;2024-02-26T10:49:14;32.05;;;3.08;;
45033;SDS011;30771;47.988;-4.186;2024-02-26T10:51:45;19.50;;;3.25;;
45033;SDS011;30771;47.988;-4.186;2024-02-26T10:54:16;20.50;;;3.15;;
45033;SDS011;30771;47.988;-4.186;2024-02-26T10:56:44;14.43;;;2.80;;
45033;SDS011;30771;47.988;-4.186;2024-02-26T11:01:40;17.73;;;3.45;;
45033;SDS011;30771;47.988;-4.186;2024-02-26T11:04:08;17.50;;;3.13;;
45033;SDS011;30771;47.988;-4.186;2024-02-26T11:09:03;15.13;;;2.40;;
45033;SDS011;30771;47.988;-4.186;2024-02-26T11:11:32;18.02;;;2.95;;
45033;SDS011;30771;47.988;-4.186;2024-02-26T11:14:01;22.70;;;2.97;;
45033;SDS011;30771;47.988;-4.186;2024-02-26T11:16:29;12.48;;;3.10;;
45033;SDS011;30771;47.988;-4.186;2024-02-26T11:18:56;20.13;;;3.33;;
45033;SDS011;30771;47.988;-4.186;2024-02-26T11:21:24;16.08;;;3.17;;
45033;SDS011;30771;47.988;-4.186;2024-02-26T11:24:08;17.58;;;2.75;;
45033;SDS011;30771;47.988;-4.186;2024-02-26T11:26:42;26.27;;;4.60;;
45033;SDS011;30771;47.988;-4.186;2024-02-26T11:29:16;19.58;;;3.63;;
45033;SDS011;30771;47.988;-4.186;2024-02-26T11:31:47;16.05;;;3.45;;
45033;SDS011;30771;47.988;-4.186;2024-02-26T11:34:15;19.13;;;4.43;;
45033;SDS011;30771;47.988;-4.186;2024-02-26T11:36:44;21.80;;;2.63;;
45033;SDS011;30771;47.988;-4.186;2024-02-26T11:39:12;18.00;;;2.55;;
45033;SDS011;30771;47.988;-4.186;2024-02-26T11:41:43;16.35;;;2.75;;
45033;SDS011;30771;47.988;-4.186;2024-02-26T11:44:10;19.00;;;3.20;;
45033;SDS011;30771;47.988;-4.186;2024-02-26T11:46:40;19.10;;;2.65;;
45033;SDS011;30771;47.988;-4.186;2024-02-26T11:51:55;19.08;;;2.92;;
45033;SDS011;30771;47.988;-4.186;2024-02-26T11:57:29;16.95;;;2.50;;
45033;SDS011;30771;47.988;-4.186;2024-02-26T12:00:14;21.00;;;2.90;;
45033;SDS011;30771;47.988;-4.186;2024-02-26T12:02:49;20.75;;;3.05;;
45033;SDS011;30771;47.988;-4.186;2024-02-26T12:05:24;21.50;;;3.08;;
45033;SDS011;30771;47.988;-4.186;2024-02-26T12:10:31;19.73;;;2.90;;
45033;SDS011;30771;47.988;-4.186;2024-02-26T12:13:03;17.08;;;2.28;;
45033;SDS011;30771;47.988;-4.186;2024-02-26T12:15:39;15.63;;;2.42;;
45033;SDS011;30771;47.988;-4.186;2024-02-26T12:18:08;21.27;;;2.75;;
45033;SDS011;30771;47.988;-4.186;2024-02-26T12:20:37;12.40;;;2.65;;
45033;SDS011;30771;47.988;-4.186;2024-02-26T12:23:04;13.52;;;2.38;;
45033;SDS011;30771;47.988;-4.186;2024-02-26T12:25:31;13.13;;;2.25;;
45033;SDS011;30771;47.988;-4.186;2024-02-26T12:27:59;19.38;;;3.17;;
45033;SDS011;30771;47.988;-4.186;2024-02-26T12:30:27;16.48;;;2.67;;
45033;SDS011;30771;47.988;-4.186;2024-02-26T12:32:56;15.32;;;1.95;;
45033;SDS011;30771;47.988;-4.186;2024-02-26T12:35:24;19.90;;;2.92;;
45033;SDS011;30771;47.988;-4.186;2024-02-26T12:37:51;20.40;;;3.05;;
45033;SDS011;30771;47.988;-4.186;2024-02-26T12:42:47;17.25;;;3.10;;
45033;SDS011;30771;47.988;-4.186;2024-02-26T12:45:14;17.40;;;2.63;;
45033;SDS011;30771;47.988;-4.186;2024-02-26T12:47:43;11.63;;;2.10;;
45033;SDS011;30771;47.988;-4.186;2024-02-26T12:50:12;15.68;;;2.42;;
45033;SDS011;30771;47.988;-4.186;2024-02-26T12:52:40;11.18;;;1.70;;
45033;SDS011;30771;47.988;-4.186;2024-02-26T12:55:09;18.27;;;2.00;;
45033;SDS011;30771;47.988;-4.186;2024-02-26T12:57:40;15.20;;;2.08;;
45033;SDS011;30771;47.988;-4.186;2024-02-26T13:00:11;12.93;;;2.38;;
45033;SDS011;30771;47.988;-4.186;2024-02-26T13:02:41;11.13;;;2.65;;
45033;SDS011;30771;47.988;-4.186;2024-02-26T13:05:11;15.60;;;2.60;;
45033;SDS011;30771;47.988;-4.186;2024-02-26T13:07:43;13.23;;;2.83;;
45033;SDS011;30771;47.988;-4.186;2024-02-26T13:10:10;11.35;;;2.30;;
45033;SDS011;30771;47.988;-4.186;2024-02-26T13:12:49;14.60;;;2.47;;
45033;SDS011;30771;47.988;-4.186;2024-02-26T13:15:20;19.40;;;2.33;;
45033;SDS011;30771;47.988;-4.186;2024-02-26T13:17:48;15.02;;;2.20;;
45033;SDS011;30771;47.988;-4.186;2024-02-26T13:20:29;12.25;;;1.92;;
45033;SDS011;30771;47.988;-4.186;2024-02-26T13:23:01;11.38;;;1.77;;
45033;SDS011;30771;47.988;-4.186;2024-02-26T13:25:35;18.38;;;2.72;;
45033;SDS011;30771;47.988;-4.186;2024-02-26T13:28:13;17.95;;;2.30;;
45033;SDS011;30771;47.988;-4.186;2024-02-26T13:30:55;14.00;;;2.00;;
45033;SDS011;30771;47.988;-4.186;2024-02-26T13:33:24;14.27;;;2.67;;
45033;SDS011;30771;47.988;-4.186;2024-02-26T13:35:52;16.02;;;2.63;;
45033;SDS011;30771;47.988;-4.186;2024-02-26T13:38:19;20.95;;;2.45;;
45033;SDS011;30771;47.988;-4.186;2024-02-26T13:40:46;10.10;;;1.90;;
45033;SDS011;30771;47.988;-4.186;2024-02-26T13:43:13;11.95;;;2.20;;
45033;SDS011;30771;47.988;-4.186;2024-02-26T13:45:39;13.98;;;2.22;;
45033;SDS011;30771;47.988;-4.186;2024-02-26T13:48:07;16.50;;;2.97;;
45033;SDS011;30771;47.988;-4.186;2024-02-26T13:50:39;14.68;;;2.50;;
45033;SDS011;30771;47.988;-4.186;2024-02-26T13:53:06;10.43;;;2.33;;
45033;SDS011;30771;47.988;-4.186;2024-02-26T13:55:33;20.45;;;2.67;;
45033;SDS011;30771;47.988;-4.186;2024-02-26T13:58:00;16.75;;;2.22;;
45033;SDS011;30771;47.988;-4.186;2024-02-26T14:00:30;12.15;;;1.95;;
45033;SDS011;30771;47.988;-4.186;2024-02-26T14:03:01;12.68;;;2.55;;
45033;SDS011;30771;47.988;-4.186;2024-02-26T14:05:29;11.60;;;1.80;;
45033;SDS011;30771;47.988;-4.186;2024-02-26T14:07:56;13.48;;;2.05;;
45033;SDS011;30771;47.988;-4.186;2024-02-26T14:10:24;17.13;;;1.92;;
45033;SDS011;30771;47.988;-4.186;2024-02-26T14:12:51;11.18;;;2.35;;
45033;SDS011;30771;47.988;-4.186;2024-02-26T14:15:17;12.73;;;2.10;;
45033;SDS011;30771;47.988;-4.186;2024-02-26T14:17:44;20.88;;;2.65;;
45033;SDS011;30771;47.988;-4.186;2024-02-26T14:20:12;12.77;;;2.50;;
45033;SDS011;30771;47.988;-4.186;2024-02-26T14:22:39;12.98;;;2.28;;
45033;SDS011;30771;47.988;-4.186;2024-02-26T14:25:06;14.15;;;2.28;;
45033;SDS011;30771;47.988;-4.186;2024-02-26T14:27:36;11.82;;;2.42;;
45033;SDS011;30771;47.988;-4.186;2024-02-26T14:30:03;16.25;;;2.17;;
45033;SDS011;30771;47.988;-4.186;2024-02-26T14:32:30;9.98;;;2.00;;
45033;SDS011;30771;47.988;-4.186;2024-02-26T14:35:01;12.98;;;2.33;;
45033;SDS011;30771;47.988;-4.186;2024-02-26T14:37:29;16.43;;;2.33;;
45033;SDS011;30771;47.988;-4.186;2024-02-26T14:39:56;15.15;;;2.05;;
45033;SDS011;30771;47.988;-4.186;2024-02-26T14:42:22;16.70;;;2.58;;
45033;SDS011;30771;47.988;-4.186;2024-02-26T14:44:50;13.02;;;2.20;;